createdAt,value
2023-01-30T00:01:27.218Z,6.08
2023-01-30T00:03:55.940Z,6.18
2023-01-30T00:06:24.736Z,6.23
2023-01-30T00:08:52.789Z,6.35
2023-01-30T00:11:21.754Z,6.49
2023-01-30T00:13:50.806Z,6.19
2023-01-30T00:16:18.914Z,6.14
2023-01-30T00:18:47.342Z,6.29
2023-01-30T00:21:15.731Z,6.31
2023-01-30T00:23:44.621Z,6.22
2023-01-30T00:26:13.208Z,6.27
2023-01-30T00:28:41.738Z,6.37
2023-01-30T00:31:13.257Z,6.41
2023-01-30T00:33:41.801Z,6.55
2023-01-30T00:36:10.493Z,6.71
2023-01-30T00:38:39.153Z,6.45
2023-01-30T00:41:10.912Z,6.21
2023-01-30T00:43:57.999Z,6.60
2023-01-30T00:46:51.078Z,6.61
2023-01-30T00:49:19.351Z,6.54
2023-01-30T00:51:47.627Z,6.56
2023-01-30T00:54:16.100Z,6.51
2023-01-30T00:56:44.295Z,6.38
2023-01-30T00:59:12.381Z,6.65
2023-01-30T01:01:40.766Z,6.72
2023-01-30T01:04:10.673Z,6.64
2023-01-30T01:06:44.146Z,6.75
2023-01-30T01:09:12.113Z,7.04
2023-01-30T01:11:41.684Z,7.17
2023-01-30T01:14:09.874Z,7.38
2023-01-30T01:16:37.962Z,7.59
2023-01-30T01:19:06.237Z,7.35
2023-01-30T01:21:35.718Z,7.30
2023-01-30T01:24:06.805Z,7.07
2023-01-30T01:26:35.340Z,7.43
2023-01-30T01:29:04.055Z,7.54
2023-01-30T01:31:33.080Z,7.37
2023-01-30T01:34:01.287Z,6.85
2023-01-30T01:36:52.136Z,6.77
2023-01-30T01:39:17.682Z,6.99
2023-01-30T01:41:45.891Z,7.14
2023-01-30T04:15:02.627Z,2.41
2023-01-30T04:17:45.620Z,4.11
2023-01-30T04:20:20.656Z,4.63
2023-01-30T04:22:52.080Z,4.96
2023-01-30T04:25:21.568Z,5.21
2023-01-30T04:27:49.947Z,5.56
2023-01-30T04:30:24.292Z,5.69
2023-01-30T04:32:57.576Z,5.85
2023-01-30T04:35:26.102Z,5.71
2023-01-30T04:37:54.588Z,5.80
2023-01-30T04:40:27.333Z,5.56
2023-01-30T04:42:56.619Z,5.48
2023-01-30T04:45:36.788Z,5.53
2023-01-30T04:48:05.359Z,6.11
2023-01-30T04:50:33.606Z,6.42
2023-01-30T04:53:01.796Z,6.41
2023-01-30T04:55:29.940Z,6.23
2023-01-30T04:57:57.965Z,6.55
2023-01-30T05:00:27.376Z,6.73
2023-01-30T05:03:01.711Z,6.89
2023-01-30T05:05:30.274Z,6.54
2023-01-30T05:07:58.838Z,6.63
2023-01-30T05:10:26.897Z,6.98
2023-01-30T05:12:55.846Z,6.74
2023-01-30T05:15:23.963Z,6.83
2023-01-30T05:17:52.246Z,6.77
2023-01-30T05:20:20.667Z,7.18
2023-01-30T05:22:51.182Z,7.35
2023-01-30T05:25:19.741Z,7.53
2023-01-30T05:27:48.029Z,7.00
2023-01-30T05:30:17.357Z,7.21
2023-01-30T05:32:45.614Z,7.03
2023-01-30T05:35:13.915Z,6.81
2023-01-30T05:37:42.503Z,7.20
2023-01-30T05:40:12.318Z,7.45
2023-01-30T05:42:40.334Z,7.83
2023-01-30T05:45:10.703Z,7.50
2023-01-30T05:47:39.236Z,7.06
2023-01-30T05:50:08.451Z,6.98
2023-01-30T05:52:36.379Z,6.95
2023-01-30T05:55:06.028Z,6.46
2023-01-30T05:57:34.218Z,6.63
2023-01-30T06:00:02.715Z,6.74
2023-01-30T06:02:41.756Z,6.85
2023-01-30T06:05:09.974Z,7.02
2023-01-30T06:07:38.455Z,6.79
2023-01-30T06:10:06.734Z,6.98
2023-01-30T06:12:35.208Z,7.43
2023-01-30T06:15:03.792Z,7.60
2023-01-30T06:17:33.937Z,7.71
2023-01-30T06:20:02.137Z,7.41
2023-01-30T06:22:30.472Z,7.43
2023-01-30T06:24:58.565Z,7.56
2023-01-30T06:27:27.895Z,7.26
2023-01-30T06:29:57.850Z,7.79
2023-01-30T06:32:26.238Z,7.58
2023-01-30T06:34:54.816Z,7.51
2023-01-30T06:37:23.504Z,7.69
2023-01-30T06:39:51.790Z,7.32
2023-01-30T06:42:20.018Z,7.30
2023-01-30T06:44:47.957Z,7.20
2023-01-30T06:47:16.025Z,6.96
2023-01-30T06:49:43.914Z,7.32
2023-01-30T06:52:12.241Z,7.19
2023-01-30T06:54:40.322Z,7.15
2023-01-30T06:57:08.341Z,7.17
2023-01-30T06:59:36.515Z,7.13
2023-01-30T07:02:04.749Z,7.33
2023-01-30T07:04:33.033Z,7.10
2023-01-30T07:07:01.053Z,7.21
2023-01-30T07:09:29.524Z,7.53
2023-01-30T07:11:57.810Z,7.63
2023-01-30T07:14:26.212Z,7.83
2023-01-30T07:16:54.719Z,7.94
2023-01-30T07:19:24.575Z,7.95
2023-01-30T07:21:52.587Z,7.97
2023-01-30T07:24:20.590Z,8.20
2023-01-30T07:26:49.216Z,7.57
2023-01-30T07:29:17.303Z,7.61
2023-01-30T07:31:45.352Z,7.95
2023-01-30T07:34:13.338Z,8.20
2023-01-30T07:36:41.319Z,7.78
2023-01-30T07:39:09.798Z,7.56
2023-01-30T07:41:38.367Z,7.47
2023-01-30T07:44:12.691Z,7.62
2023-01-30T07:46:40.814Z,7.38
2023-01-30T07:49:09.566Z,7.60
2023-01-30T07:51:37.598Z,7.81
2023-01-30T07:54:05.809Z,8.15
2023-01-30T07:56:35.511Z,8.15
2023-01-30T07:59:05.736Z,7.94
2023-01-30T08:01:33.741Z,7.57
2023-01-30T08:04:01.804Z,7.45
2023-01-30T08:06:30.967Z,7.74
2023-01-30T08:08:59.471Z,7.61
2023-01-30T08:11:28.864Z,7.72
2023-01-30T08:13:57.869Z,7.82
2023-01-30T08:16:26.300Z,7.97
2023-01-30T08:18:54.714Z,8.50
2023-01-30T08:21:22.881Z,8.35
2023-01-30T08:23:51.016Z,7.98
2023-01-30T08:26:19.186Z,8.32
2023-01-30T08:28:47.242Z,8.52
2023-01-30T08:31:15.759Z,8.30
2023-01-30T08:33:44.501Z,8.07
2023-01-30T08:36:12.570Z,8.46
2023-01-30T08:38:40.734Z,8.40
2023-01-30T08:41:09.761Z,8.79
2023-01-30T08:43:37.986Z,8.57
2023-01-30T08:46:06.046Z,8.20
2023-01-30T08:48:47.677Z,7.93
2023-01-30T08:51:17.127Z,7.88
2023-01-30T08:53:45.887Z,8.08
2023-01-30T08:56:13.957Z,8.25
2023-01-30T08:58:43.913Z,8.34
2023-01-30T09:01:12.133Z,8.49
2023-01-30T09:03:40.347Z,8.09
2023-01-30T09:06:08.890Z,8.38
2023-01-30T09:08:38.062Z,8.62
2023-01-30T09:11:10.126Z,8.52
2023-01-30T09:13:43.370Z,8.43
2023-01-30T09:16:12.033Z,8.45
2023-01-30T09:18:42.015Z,8.33
2023-01-30T09:21:11.080Z,8.53
2023-01-30T09:23:39.370Z,8.75
2023-01-30T09:26:07.668Z,9.24
2023-01-30T09:28:35.776Z,9.09
2023-01-30T09:31:04.349Z,9.01
2023-01-30T09:33:34.132Z,9.33
2023-01-30T09:36:02.299Z,9.15
2023-01-30T09:38:30.397Z,9.05
2023-01-30T09:40:59.777Z,9.03
2023-01-30T09:44:05.330Z,8.85
2023-01-30T13:49:30.756Z,3.95
2023-01-30T13:52:10.290Z,5.29
2023-01-30T13:54:59.552Z,5.35
2023-01-30T13:57:47.829Z,5.21
2023-01-30T14:00:29.024Z,5.37
2023-01-30T14:03:06.081Z,5.51
2023-01-30T14:06:00.720Z,5.45
2023-01-30T14:08:50.477Z,5.68
2023-01-30T14:11:39.745Z,5.68
2023-01-30T14:14:22.839Z,5.62
2023-01-30T14:17:11.287Z,5.98
2023-01-30T14:19:43.500Z,5.83
2023-01-30T14:22:23.249Z,6.07
2023-01-30T14:25:23.163Z,6.06
2023-01-30T14:27:52.967Z,6.66
2023-01-30T14:30:43.259Z,6.43
2023-01-30T14:33:20.890Z,6.55
2023-01-30T14:35:59.091Z,6.53
2023-01-30T14:38:31.194Z,6.64
2023-01-30T14:40:59.596Z,6.76
2023-01-30T14:43:36.998Z,6.89
2023-01-30T14:46:08.616Z,6.91
2023-01-30T14:48:44.972Z,7.08
2023-01-30T14:51:20.833Z,7.48
2023-01-30T14:53:52.604Z,7.51
2023-01-30T14:56:36.652Z,7.71
2023-01-30T14:59:17.357Z,7.69
2023-01-30T15:02:04.616Z,7.32
2023-01-30T15:04:38.929Z,7.09
2023-01-30T15:07:16.788Z,7.22
2023-01-30T15:10:23.775Z,7.25
2023-01-30T15:13:19.173Z,7.59
2023-01-30T15:16:16.214Z,8.32
2023-01-30T15:19:03.980Z,8.64
2023-01-30T15:21:48.612Z,8.22
2023-01-30T15:24:21.214Z,7.96
2023-01-30T15:27:10.903Z,7.83
2023-01-30T15:30:04.033Z,7.48
2023-01-30T15:32:32.799Z,7.56
2023-01-30T15:35:21.875Z,7.73
2023-01-30T15:37:54.435Z,7.70
2023-01-30T15:40:27.655Z,7.73
2023-01-30T15:43:01.898Z,7.71
2023-01-30T15:45:35.915Z,7.66
2023-01-30T15:48:04.044Z,7.58
2023-01-30T15:50:32.536Z,7.91
2023-01-30T15:53:00.504Z,7.75
2023-01-30T15:55:32.684Z,7.61
2023-01-30T15:58:06.183Z,7.72
2023-01-30T16:00:36.422Z,7.51
2023-01-30T16:03:05.536Z,7.52
2023-01-30T16:05:33.493Z,7.62
2023-01-30T16:08:10.649Z,7.56
2023-01-30T16:10:44.702Z,7.69
2023-01-30T16:13:13.605Z,7.75
2023-01-30T16:15:46.419Z,8.03
2023-01-30T16:18:35.488Z,8.19
2023-01-30T16:21:36.799Z,7.97
2023-01-30T16:24:25.012Z,8.17
2023-01-30T16:26:59.327Z,8.18
2023-01-30T16:29:30.280Z,8.47
2023-01-30T16:31:58.779Z,8.11
2023-01-30T16:34:37.181Z,8.34
2023-01-30T16:37:07.855Z,8.69
2023-01-30T16:39:37.040Z,8.54
2023-01-30T16:42:28.417Z,8.52
2023-01-30T16:45:40.245Z,8.73
2023-01-30T16:48:18.375Z,8.63
2023-01-30T16:50:48.112Z,8.51
2023-01-30T16:53:18.821Z,8.62
2023-01-30T16:56:05.783Z,8.51
2023-01-30T16:58:35.989Z,8.58
2023-01-30T17:01:07.965Z,8.55
2023-01-30T17:03:38.444Z,8.48
2023-01-30T17:06:16.373Z,8.66
2023-01-30T17:08:53.981Z,8.52
2023-01-30T17:11:29.107Z,8.29
2023-01-30T17:14:26.310Z,8.49
2023-01-30T17:17:00.920Z,8.70
2023-01-30T17:19:29.378Z,8.77
2023-01-30T17:21:58.660Z,8.91
2023-01-30T17:24:27.254Z,8.16
2023-01-30T17:27:00.361Z,8.05
2023-01-30T17:29:41.909Z,7.93
2023-01-30T17:32:11.861Z,8.08
2023-01-30T17:34:41.714Z,8.51
2023-01-30T17:37:24.169Z,8.80
2023-01-30T17:39:52.643Z,8.39
2023-01-30T17:42:22.512Z,8.60
2023-01-30T17:44:50.883Z,8.33
2023-01-30T17:47:18.793Z,7.99
2023-01-30T17:49:48.552Z,8.35
2023-01-30T17:52:18.990Z,8.76
2023-01-30T22:08:58.451Z,0.31
2023-01-30T22:11:42.264Z,3.20
2023-01-30T22:14:12.581Z,3.36
2023-01-30T22:16:39.793Z,2.98
2023-01-30T22:19:06.426Z,3.22
2023-01-30T22:21:35.358Z,3.56
2023-01-30T22:24:03.019Z,3.74
2023-01-30T22:26:29.850Z,3.75
2023-01-30T22:28:58.061Z,3.81
2023-01-30T22:31:26.075Z,3.97
2023-01-30T22:33:54.915Z,3.95
2023-01-30T22:36:26.505Z,4.24
2023-01-30T22:38:53.266Z,4.66
2023-01-30T22:41:21.569Z,4.85
2023-01-30T22:43:55.825Z,4.52
2023-01-30T22:46:24.502Z,4.29
2023-01-30T22:48:51.429Z,4.44
2023-01-30T22:51:25.694Z,4.63
2023-01-30T22:53:54.525Z,4.59
2023-01-30T22:56:22.921Z,4.73
2023-01-30T22:58:49.646Z,5.10
2023-01-30T23:01:20.913Z,5.54
2023-01-30T23:03:52.586Z,5.54
2023-01-30T23:06:19.215Z,5.64
2023-01-30T23:08:47.559Z,5.33
2023-01-30T23:11:22.112Z,5.51
2023-01-30T23:13:50.356Z,5.97
2023-01-30T23:16:18.297Z,6.21
2023-01-30T23:19:01.002Z,5.79
2023-01-30T23:21:30.962Z,5.76
2023-01-30T23:24:02.101Z,5.86
2023-01-30T23:26:33.786Z,5.75
2023-01-30T23:29:02.102Z,5.81
2023-01-30T23:31:31.742Z,6.18
2023-01-30T23:34:01.052Z,5.95
2023-01-30T23:36:27.990Z,5.93
2023-01-30T23:38:55.558Z,5.85
2023-01-30T23:41:24.243Z,5.75
2023-01-30T23:43:51.236Z,6.01
2023-01-30T23:46:24.705Z,6.47
